createdAt,value
2018-09-02T00:01:49.179Z,8.20
2018-09-02T00:04:17.077Z,12.80
2018-09-02T00:06:44.656Z,13.00
2018-09-02T00:09:12.297Z,12.40
2018-09-02T00:11:40.300Z,9.80
2018-09-02T00:14:07.919Z,9.80
2018-09-02T00:16:35.546Z,13.40
2018-09-02T00:19:03.456Z,12.00
2018-09-02T00:21:31.035Z,11.20
2018-09-02T00:23:58.612Z,7.40
2018-09-02T00:26:26.198Z,11.80
2018-09-02T00:28:53.815Z,9.00
2018-09-02T00:31:21.439Z,9.40
2018-09-02T00:33:51.455Z,8.40
2018-09-02T00:36:19.135Z,9.60
2018-09-02T00:38:47.788Z,7.80
2018-09-02T00:41:15.788Z,10.00
2018-09-02T00:43:43.720Z,7.80
2018-09-02T00:46:11.356Z,9.20
2018-09-02T00:48:39.395Z,7.80
2018-09-02T00:51:07.003Z,11.00
2018-09-02T00:53:34.718Z,9.40
2018-09-02T00:56:02.828Z,10.60
2018-09-02T00:58:31.483Z,9.80
2018-09-02T01:00:59.099Z,9.60
2018-09-02T01:03:26.994Z,9.60
2018-09-02T01:05:54.610Z,10.00
2018-09-02T01:08:22.339Z,8.20
2018-09-02T01:10:50.594Z,6.80
2018-09-02T01:13:18.478Z,7.00
2018-09-02T01:15:46.685Z,10.40
2018-09-02T01:18:15.320Z,12.40
2018-09-02T01:20:43.386Z,8.00
2018-09-02T01:23:11.095Z,12.20
2018-09-02T01:25:39.330Z,9.00
2018-09-02T01:28:07.315Z,10.40
2018-09-02T01:30:34.970Z,8.60
2018-09-02T01:33:02.567Z,7.00
2018-09-02T01:35:34.521Z,9.00
2018-09-02T01:38:03.479Z,9.20
2018-09-02T01:40:31.190Z,9.80
2018-09-02T01:42:59.124Z,10.80
2018-09-02T01:45:26.745Z,10.40
2018-09-02T01:47:54.350Z,7.80
2018-09-02T01:50:21.974Z,9.00
2018-09-02T01:52:50.179Z,11.80
2018-09-02T01:55:17.799Z,12.00
2018-09-02T01:57:45.389Z,10.80
2018-09-02T02:00:13.380Z,13.00
2018-09-02T02:02:41.045Z,13.00
2018-09-02T02:05:08.644Z,10.60
2018-09-02T02:07:36.691Z,10.80
2018-09-02T02:10:04.301Z,9.40
2018-09-02T02:12:31.965Z,6.20
2018-09-02T02:15:00.076Z,9.80
2018-09-02T02:17:27.786Z,8.20
2018-09-02T02:19:55.495Z,10.80
2018-09-02T02:22:23.495Z,7.80
2018-09-02T02:24:51.075Z,9.40
2018-09-02T02:27:18.692Z,9.60
2018-09-02T02:29:46.715Z,9.00
2018-09-02T02:32:14.593Z,10.40
2018-09-02T02:34:42.247Z,11.60
2018-09-02T02:37:10.310Z,8.80
2018-09-02T02:39:37.897Z,9.60
2018-09-02T02:42:05.500Z,9.40
2018-09-02T02:44:33.557Z,11.60
2018-09-02T02:47:01.320Z,12.00
2018-09-02T02:49:28.928Z,10.40
2018-09-02T02:51:57.110Z,13.40
2018-09-02T02:54:24.716Z,9.40
2018-09-02T02:56:52.337Z,9.20
2018-09-02T02:59:20.459Z,13.00
2018-09-02T03:01:48.036Z,12.00
2018-09-02T03:04:15.638Z,10.40
2018-09-02T03:06:43.639Z,10.80
2018-09-02T03:09:12.357Z,13.00
2018-09-02T03:11:40.109Z,10.80
2018-09-02T03:14:08.666Z,10.00
2018-09-02T03:16:36.279Z,9.20
2018-09-02T03:19:03.951Z,11.80
2018-09-02T03:21:32.051Z,9.20
2018-09-02T03:23:59.635Z,9.20
2018-09-02T03:26:27.221Z,9.80
2018-09-02T03:28:54.827Z,10.20
2018-09-02T03:31:22.447Z,11.60
2018-09-02T03:33:50.060Z,8.60
2018-09-02T03:36:18.145Z,12.20
2018-09-02T03:38:45.745Z,9.40
2018-09-02T03:41:13.327Z,10.80
2018-09-02T03:43:40.956Z,12.00
2018-09-02T03:46:08.959Z,9.20
2018-09-02T03:48:36.583Z,9.80
2018-09-02T03:51:04.192Z,9.00
2018-09-02T03:53:31.788Z,9.20
2018-09-02T03:55:59.820Z,10.00
2018-09-02T03:58:27.438Z,9.20
2018-09-02T04:00:55.075Z,12.60
2018-09-02T04:03:22.734Z,11.20
2018-09-02T04:05:50.628Z,6.00
2018-09-02T04:08:18.219Z,9.60
2018-09-02T04:10:45.809Z,11.60
2018-09-02T04:13:13.428Z,11.20
2018-09-02T04:15:41.515Z,10.40
2018-09-02T04:18:09.124Z,9.40
2018-09-02T04:20:37.497Z,8.60
2018-09-02T04:23:05.946Z,9.60
2018-09-02T04:25:34.441Z,12.00
2018-09-02T04:28:02.022Z,11.00
2018-09-02T04:30:30.168Z,12.00
2018-09-02T04:32:58.317Z,9.00
2018-09-02T04:35:26.232Z,10.80
2018-09-02T04:37:54.842Z,10.00
2018-09-02T04:40:22.978Z,10.00
2018-09-02T04:42:50.886Z,14.80
2018-09-02T04:45:18.567Z,12.20
2018-09-02T04:47:46.246Z,12.40
2018-09-02T04:50:15.713Z,11.80
2018-09-02T04:52:43.855Z,14.20
2018-09-02T04:55:11.550Z,7.00
2018-09-02T04:57:39.278Z,12.20
2018-09-02T05:00:08.054Z,12.80
2018-09-02T05:02:35.667Z,10.80
2018-09-02T05:05:03.292Z,15.00
2018-09-02T05:07:30.908Z,12.40
2018-09-02T05:09:58.860Z,15.00
2018-09-02T05:12:26.523Z,11.60
2018-09-02T05:14:54.836Z,12.60
2018-09-02T05:17:23.714Z,12.00
2018-09-02T05:19:51.687Z,15.00
2018-09-02T05:22:19.367Z,13.00
2018-09-02T05:24:47.208Z,16.00
2018-09-02T05:27:15.179Z,13.80
2018-09-02T05:29:42.779Z,12.20
2018-09-02T05:32:10.347Z,12.80
2018-09-02T05:34:38.321Z,12.40
2018-09-02T05:37:06.175Z,14.60
2018-09-02T05:39:34.458Z,11.20
2018-09-02T05:42:03.122Z,13.00
2018-09-02T05:44:30.725Z,16.20
2018-09-02T05:46:58.355Z,15.00
2018-09-02T05:49:25.973Z,13.40
2018-09-02T05:51:54.011Z,15.40
2018-09-02T05:54:21.650Z,15.00
2018-09-02T05:56:49.261Z,14.60
2018-09-02T05:59:17.253Z,17.80
2018-09-02T06:01:44.873Z,16.80
2018-09-02T06:04:12.502Z,15.80
2018-09-02T06:06:40.469Z,16.00
2018-09-02T06:09:08.079Z,14.80
2018-09-02T06:11:35.719Z,15.20
2018-09-02T06:14:04.316Z,15.80
2018-09-02T06:16:31.940Z,13.00
2018-09-02T06:18:59.551Z,15.60
2018-09-02T06:21:27.510Z,18.00
2018-09-02T06:23:55.455Z,16.20
2018-09-02T06:26:23.069Z,13.40
2018-09-02T06:28:50.699Z,23.60
2018-09-02T06:31:18.681Z,19.80
2018-09-02T06:33:46.274Z,19.40
2018-09-02T06:36:13.935Z,21.00
2018-09-02T06:38:41.607Z,22.40
2018-09-02T06:41:09.514Z,19.80
2018-09-02T06:43:37.182Z,22.20
2018-09-02T06:46:05.440Z,20.80
2018-09-02T06:48:33.850Z,18.80
2018-09-02T06:51:01.478Z,22.00
2018-09-02T06:53:29.083Z,17.20
2018-09-02T06:55:57.006Z,21.60
2018-09-02T06:58:24.788Z,18.40
2018-09-02T07:00:52.406Z,18.80
2018-09-02T07:03:20.550Z,24.00
2018-09-02T07:05:48.343Z,13.40
2018-09-02T07:08:16.962Z,22.00
2018-09-02T07:10:45.646Z,22.40
2018-09-02T07:13:15.274Z,16.80
2018-09-02T07:15:42.896Z,18.00
2018-09-02T07:18:16.432Z,21.00
2018-09-02T07:20:45.397Z,19.60
2018-09-02T07:23:13.007Z,20.20
2018-09-02T07:25:41.036Z,18.80
2018-09-02T07:28:08.622Z,18.20
2018-09-02T07:30:36.266Z,18.80
2018-09-02T07:33:04.321Z,27.40
2018-09-02T07:35:32.030Z,20.80
2018-09-02T07:37:59.816Z,25.40
2018-09-02T07:40:28.790Z,19.20
2018-09-02T07:42:56.410Z,21.20
2018-09-02T07:45:24.548Z,22.40
2018-09-02T07:47:52.587Z,27.40
2018-09-02T07:50:20.183Z,23.20
2018-09-02T07:52:48.700Z,21.60
2018-09-02T07:55:16.815Z,24.00
2018-09-02T07:57:44.416Z,19.80
2018-09-02T08:00:12.972Z,23.80
2018-09-02T08:02:41.494Z,19.80
2018-09-02T08:05:09.348Z,22.60
2018-09-02T08:07:37.263Z,21.00
2018-09-02T08:10:05.332Z,26.20
2018-09-02T08:12:33.047Z,18.40
2018-09-02T08:15:01.203Z,18.60
2018-09-02T08:17:30.196Z,17.60
2018-09-02T08:19:58.889Z,20.60
2018-09-02T08:22:26.766Z,18.20
2018-09-02T08:24:54.911Z,22.00
2018-09-02T08:29:47.720Z,14.60
2018-09-02T08:32:15.605Z,22.00
2018-09-02T08:34:43.191Z,13.40
2018-09-02T08:37:11.527Z,15.60
2018-09-02T08:39:39.498Z,14.20
2018-09-02T08:42:07.136Z,12.80
2018-09-02T08:44:34.755Z,16.80
2018-09-02T08:47:02.826Z,13.80
2018-09-02T08:49:30.430Z,13.80
2018-09-02T08:52:01.241Z,15.40
2018-09-02T08:54:29.172Z,11.80
2018-09-02T08:56:56.774Z,6.80
2018-09-02T08:59:24.751Z,10.20
2018-09-02T09:01:52.782Z,10.20
2018-09-02T09:04:20.391Z,12.80
2018-09-02T09:06:47.997Z,10.20
2018-09-02T09:09:17.583Z,11.20
2018-09-02T09:11:44.954Z,10.20
2018-09-02T09:14:13.613Z,10.00
2018-09-02T09:16:42.628Z,4.60
2018-09-02T09:19:10.239Z,9.20
2018-09-02T09:21:38.195Z,7.80
2018-09-02T09:24:07.127Z,9.20
2018-09-02T09:26:34.787Z,7.00
2018-09-02T09:29:02.570Z,6.60
2018-09-02T09:31:30.520Z,7.80
2018-09-02T09:33:59.263Z,8.40
2018-09-02T09:36:26.855Z,7.40
2018-09-02T09:38:55.436Z,7.00
2018-09-02T09:41:23.005Z,7.80
2018-09-02T09:43:50.583Z,5.60
2018-09-02T09:46:18.660Z,5.60
2018-09-02T09:48:46.275Z,8.00
2018-09-02T09:51:14.604Z,8.40
2018-09-02T09:53:42.574Z,6.60
2018-09-02T09:56:10.923Z,8.20
2018-09-02T09:58:39.470Z,8.20
2018-09-02T10:01:07.468Z,5.00
2018-09-02T10:03:36.648Z,5.00
2018-09-02T10:06:05.366Z,6.00
2018-09-02T10:08:33.347Z,5.60
2018-09-02T10:11:02.578Z,6.40
2018-09-02T10:13:31.563Z,8.00
2018-09-02T10:15:59.480Z,7.00
2018-09-02T10:18:27.055Z,7.80
2018-09-02T10:20:54.624Z,7.20
2018-09-02T10:23:22.710Z,4.80
2018-09-02T10:25:50.895Z,7.80
2018-09-02T10:28:19.611Z,8.60
2018-09-02T10:30:48.529Z,8.20
2018-09-02T10:33:16.974Z,7.60
2018-09-02T10:35:44.631Z,4.80
2018-09-02T10:38:12.650Z,6.20
2018-09-02T10:40:40.267Z,5.00
2018-09-02T10:43:08.434Z,5.00
2018-09-02T10:45:37.539Z,7.00
2018-09-02T10:48:05.136Z,5.20
2018-09-02T10:50:32.733Z,4.20
2018-09-02T10:53:01.347Z,6.00
2018-09-02T10:55:28.953Z,4.20
2018-09-02T10:57:57.125Z,5.00
2018-09-02T11:00:25.167Z,5.80
2018-09-02T11:02:54.292Z,5.00
2018-09-02T11:05:21.916Z,5.80
2018-09-02T11:07:49.853Z,5.20
2018-09-02T11:10:19.203Z,5.00
2018-09-02T11:12:46.825Z,4.80
2018-09-02T11:15:15.282Z,5.00
2018-09-02T11:17:43.010Z,7.00
2018-09-02T11:20:11.071Z,5.80
2018-09-02T11:22:40.831Z,5.40
2018-09-02T11:25:08.740Z,6.20
2018-09-02T11:27:37.155Z,4.00
2018-09-02T11:30:05.205Z,4.80
2018-09-02T11:32:34.459Z,5.00
2018-09-02T11:35:02.090Z,5.00
2018-09-02T11:37:30.187Z,3.60
2018-09-02T11:39:57.890Z,6.40
2018-09-02T11:42:26.046Z,5.00
2018-09-02T11:44:54.080Z,6.00
2018-09-02T11:47:21.888Z,5.80
2018-09-02T11:49:49.474Z,6.20
2018-09-02T11:52:18.213Z,5.00
2018-09-02T11:54:47.772Z,5.00
2018-09-02T11:57:15.520Z,5.00
2018-09-02T11:59:46.498Z,6.20
2018-09-02T12:02:14.269Z,3.80
2018-09-02T12:04:44.729Z,7.80
2018-09-02T12:07:14.466Z,3.80
2018-09-02T12:09:42.530Z,4.00
2018-09-02T12:12:10.157Z,4.20
2018-09-02T12:14:38.248Z,6.00
2018-09-02T12:17:05.872Z,5.20
2018-09-02T12:19:33.511Z,4.40
2018-09-02T12:22:01.603Z,4.00
2018-09-02T12:24:29.190Z,4.00
2018-09-02T12:26:56.788Z,3.40
2018-09-02T12:29:24.338Z,4.80
2018-09-02T12:31:52.747Z,5.00
2018-09-02T12:34:20.839Z,5.40
2018-09-02T12:36:49.054Z,4.00
2018-09-02T12:39:18.905Z,4.00
2018-09-02T12:41:49.679Z,5.60
2018-09-02T12:44:17.299Z,5.00
2018-09-02T12:46:46.289Z,5.20
2018-09-02T12:49:14.267Z,5.00
2018-09-02T12:51:42.018Z,4.40
2018-09-02T12:54:10.358Z,6.20
2018-09-02T12:56:38.396Z,4.40
2018-09-02T12:59:06.050Z,3.00
2018-09-02T13:01:33.657Z,6.00
2018-09-02T13:04:02.014Z,4.20
2018-09-02T13:06:30.219Z,4.00
2018-09-02T13:08:58.466Z,4.40
2018-09-02T13:11:26.921Z,4.00
2018-09-02T13:13:55.442Z,4.00
2018-09-02T13:16:24.131Z,5.00
2018-09-02T13:18:52.845Z,3.20
2018-09-02T13:21:25.515Z,2.80
2018-09-02T13:23:53.167Z,5.00
2018-09-02T13:26:22.015Z,3.60
2018-09-02T13:28:50.218Z,3.60
2018-09-02T13:31:18.332Z,4.20
2018-09-02T13:33:46.431Z,4.00
2018-09-02T13:36:14.055Z,4.00
2018-09-02T13:38:43.948Z,3.20
2018-09-02T13:41:12.014Z,3.20
2018-09-02T13:43:40.266Z,3.00
2018-09-02T13:46:07.849Z,4.60
2018-09-02T13:48:36.242Z,4.00
2018-09-02T13:51:03.865Z,5.00
2018-09-02T13:53:32.319Z,4.00
2018-09-02T13:56:00.394Z,5.00
2018-09-02T13:58:28.695Z,4.00
2018-09-02T14:00:56.293Z,3.80
2018-09-02T14:03:27.387Z,5.00
2018-09-02T14:05:55.907Z,4.00
2018-09-02T14:08:23.711Z,4.80
2018-09-02T14:10:51.700Z,3.40
2018-09-02T14:13:20.986Z,5.60
2018-09-02T14:15:48.610Z,3.00
2018-09-02T14:18:16.629Z,3.20
2018-09-02T14:20:45.403Z,4.40
2018-09-02T14:23:13.149Z,5.60
2018-09-02T14:25:41.237Z,3.60
2018-09-02T14:28:08.911Z,4.40
2018-09-02T14:30:36.519Z,2.60
2018-09-02T14:33:04.488Z,3.00
2018-09-02T14:35:33.070Z,5.60
2018-09-02T14:38:00.966Z,2.20
2018-09-02T14:40:28.955Z,4.00
2018-09-02T14:42:56.582Z,3.00
2018-09-02T14:45:24.209Z,6.00
2018-09-02T14:47:52.967Z,3.80
2018-09-02T14:50:23.894Z,3.40
2018-09-02T14:52:51.468Z,4.00
2018-09-02T14:55:20.285Z,3.00
2018-09-02T14:57:50.115Z,3.00
2018-09-02T15:00:18.670Z,4.00
2018-09-02T15:02:47.066Z,3.00
2018-09-02T15:05:14.676Z,3.60
2018-09-02T15:07:42.278Z,3.40
2018-09-02T15:10:10.306Z,4.00
2018-09-02T15:12:37.922Z,5.80
2018-09-02T15:15:06.467Z,5.20
2018-09-02T15:17:34.463Z,3.60
2018-09-02T15:20:02.042Z,5.40
2018-09-02T15:22:29.635Z,6.00
2018-09-02T15:25:00.438Z,4.40
2018-09-02T15:27:28.229Z,4.00
2018-09-02T15:29:55.940Z,4.00
2018-09-02T15:32:23.930Z,2.00
2018-09-02T15:34:52.466Z,3.80
2018-09-02T15:37:22.947Z,4.40
2018-09-02T15:39:56.726Z,3.00
2018-09-02T15:42:25.682Z,5.60
2018-09-02T15:44:53.398Z,2.40
2018-09-02T15:47:21.271Z,3.00
2018-09-02T15:49:50.059Z,4.60
2018-09-02T15:52:18.506Z,5.00
2018-09-02T15:54:46.530Z,2.60
2018-09-02T15:57:15.290Z,2.40
2018-09-02T15:59:45.407Z,5.20
2018-09-02T16:02:14.215Z,4.20
2018-09-02T16:04:42.019Z,3.20
2018-09-02T16:07:09.715Z,3.60
2018-09-02T16:09:39.608Z,4.40
2018-09-02T16:12:11.682Z,4.20
2018-09-02T16:14:40.083Z,5.00
2018-09-02T16:17:08.919Z,4.40
2018-09-02T16:19:37.577Z,4.80
2018-09-02T16:22:05.207Z,3.00
2018-09-02T16:24:33.210Z,6.40
2018-09-02T16:27:00.912Z,2.80
2018-09-02T16:29:29.363Z,5.00
2018-09-02T16:31:57.296Z,5.40
2018-09-02T16:34:25.721Z,4.60
2018-09-02T16:36:53.342Z,4.00
2018-09-02T16:39:22.279Z,4.80
2018-09-02T16:41:51.083Z,4.60
2018-09-02T16:44:19.359Z,3.60
2018-09-02T16:46:48.476Z,5.00
2018-09-02T16:49:16.652Z,4.00
2018-09-02T16:51:45.921Z,4.80
2018-09-02T16:54:14.539Z,5.00
2018-09-02T16:56:42.283Z,4.00
2018-09-02T16:59:09.965Z,4.60
2018-09-02T17:01:38.100Z,3.20
2018-09-02T17:04:09.530Z,4.40
2018-09-02T17:06:38.257Z,2.00
2018-09-02T17:09:06.204Z,5.00
2018-09-02T17:11:34.930Z,5.00
2018-09-02T17:14:03.207Z,4.20
2018-09-02T17:16:31.091Z,4.20
2018-09-02T17:19:04.155Z,4.60
2018-09-02T17:21:31.788Z,4.20
2018-09-02T17:23:59.860Z,4.00
2018-09-02T17:26:27.476Z,5.00
2018-09-02T17:28:55.104Z,4.40
2018-09-02T17:31:23.387Z,5.40
2018-09-02T17:33:51.016Z,4.00
2018-09-02T17:36:20.118Z,5.00
2018-09-02T17:38:48.366Z,4.00
2018-09-02T17:41:16.003Z,2.40
2018-09-02T17:43:44.022Z,4.20
2018-09-02T17:46:12.620Z,3.20
2018-09-02T17:48:41.096Z,2.60
2018-09-02T17:51:09.756Z,4.20
2018-09-02T17:53:37.405Z,4.00
2018-09-02T17:56:05.043Z,2.00
2018-09-02T17:58:33.730Z,1.40
2018-09-02T18:01:06.791Z,4.40
2018-09-02T18:03:34.665Z,2.80
2018-09-02T18:06:04.513Z,2.40
2018-09-02T18:08:33.115Z,2.40
2018-09-02T18:11:01.216Z,4.00
2018-09-02T18:13:29.441Z,3.60
2018-09-02T18:15:57.127Z,4.00
2018-09-02T18:18:26.243Z,4.00
2018-09-02T18:20:54.006Z,2.00
2018-09-02T18:23:22.633Z,4.00
2018-09-02T18:25:50.660Z,4.60
2018-09-02T18:28:21.319Z,2.00
2018-09-02T18:30:49.627Z,2.00
2018-09-02T18:33:20.601Z,6.20
2018-09-02T18:35:48.883Z,4.40
2018-09-02T18:38:16.610Z,4.20
2018-09-02T18:40:45.263Z,4.00
2018-09-02T18:43:12.892Z,4.00
2018-09-02T18:45:40.529Z,5.80
2018-09-02T18:48:09.055Z,7.20
2018-09-02T18:50:37.288Z,4.00
2018-09-02T18:53:05.939Z,4.00
2018-09-02T18:55:33.968Z,5.00
2018-09-02T18:58:02.567Z,4.00
2018-09-02T19:00:31.252Z,3.20
2018-09-02T19:03:00.373Z,4.00
2018-09-02T19:05:30.654Z,4.80
2018-09-02T19:08:00.587Z,4.40
2018-09-02T19:10:28.520Z,4.00
2018-09-02T19:12:56.362Z,3.20
2018-09-02T19:15:25.707Z,5.00
2018-09-02T19:18:00.447Z,4.00
2018-09-02T19:20:28.038Z,4.00
2018-09-02T19:22:57.205Z,2.00
2018-09-02T19:25:31.448Z,4.40
2018-09-02T19:28:00.461Z,4.80
2018-09-02T19:30:30.340Z,4.80
2018-09-02T19:32:58.576Z,4.00
2018-09-02T19:35:27.780Z,2.80
2018-09-02T19:37:56.477Z,4.80
2018-09-02T19:40:24.770Z,4.40
2018-09-02T19:45:27.109Z,2.40
2018-09-02T19:47:58.618Z,5.00
2018-09-02T19:50:26.355Z,5.00
2018-09-02T19:52:54.727Z,4.40
2018-09-02T19:55:26.227Z,5.00
2018-09-02T19:57:54.661Z,3.60
2018-09-02T20:00:23.277Z,4.00
2018-09-02T20:02:55.238Z,2.80
2018-09-02T20:05:23.834Z,4.00
2018-09-02T20:07:53.668Z,5.80
2018-09-02T20:10:35.131Z,4.60
2018-09-02T20:13:04.824Z,4.80
2018-09-02T20:15:34.723Z,5.00
2018-09-02T20:18:04.911Z,4.00
2018-09-02T20:20:32.533Z,5.00
2018-09-02T20:23:01.500Z,4.40
2018-09-02T20:25:31.399Z,2.00
2018-09-02T20:28:00.914Z,2.80
2018-09-02T20:30:29.082Z,4.40
2018-09-02T20:32:56.738Z,4.00
2018-09-02T20:35:26.237Z,4.80
2018-09-02T20:37:54.889Z,4.00
2018-09-02T20:40:22.595Z,5.20
2018-09-02T20:42:50.889Z,7.40
2018-09-02T20:45:19.548Z,3.60
2018-09-02T20:47:47.235Z,4.00
2018-09-02T20:50:15.974Z,4.80
2018-09-02T20:52:44.162Z,7.20
2018-09-02T20:55:14.493Z,5.00
2018-09-02T20:57:43.341Z,7.00
2018-09-02T21:00:12.361Z,6.80
2018-09-02T21:02:40.088Z,5.80
2018-09-02T21:05:08.496Z,4.60
2018-09-02T21:07:36.518Z,4.00
2018-09-02T21:10:04.298Z,7.00
2018-09-02T21:12:35.626Z,6.20
2018-09-02T21:15:04.389Z,2.20
2018-09-02T21:17:33.803Z,4.20
2018-09-02T21:20:03.111Z,6.20
2018-09-02T21:22:31.167Z,7.40
2018-09-02T21:25:00.061Z,7.20
2018-09-02T21:27:28.398Z,7.80
2018-09-02T21:29:56.473Z,7.40
2018-09-02T21:32:25.258Z,6.40
2018-09-02T21:34:52.909Z,8.40
2018-09-02T21:37:32.253Z,7.80
2018-09-02T21:39:59.921Z,9.80
2018-09-02T21:42:28.681Z,8.00
2018-09-02T21:44:56.601Z,10.00
2018-09-02T21:47:25.746Z,11.20
2018-09-02T21:49:53.786Z,7.00
2018-09-02T21:52:21.554Z,6.40
2018-09-02T21:54:50.337Z,9.60
2018-09-02T21:57:20.823Z,11.20
2018-09-02T21:59:48.554Z,7.00
2018-09-02T22:02:16.250Z,9.20
2018-09-02T22:04:44.465Z,7.40
2018-09-02T22:07:12.320Z,7.80
2018-09-02T22:09:39.920Z,6.20
2018-09-02T22:12:07.949Z,8.40
2018-09-02T22:14:36.113Z,8.40
2018-09-02T22:17:04.456Z,8.20
2018-09-02T22:19:32.447Z,9.80
2018-09-02T22:22:00.047Z,12.20
2018-09-02T22:24:27.657Z,5.40
2018-09-02T22:26:56.554Z,7.80
2018-09-02T22:29:24.436Z,10.00
2018-09-02T22:31:52.587Z,6.60
2018-09-02T22:34:20.566Z,5.20
2018-09-02T22:36:49.000Z,7.60
2018-09-02T22:39:16.621Z,12.60
2018-09-02T22:41:45.177Z,7.40
2018-09-02T22:44:15.674Z,7.40
2018-09-02T22:46:43.229Z,6.80
2018-09-02T22:49:10.836Z,7.80
2018-09-02T22:51:38.778Z,9.20
2018-09-02T22:54:07.213Z,7.00
2018-09-02T22:56:35.803Z,7.80
2018-09-02T22:59:03.846Z,8.80
2018-09-02T23:01:31.444Z,7.60
2018-09-02T23:03:59.014Z,7.80
2018-09-02T23:06:26.618Z,7.20
2018-09-02T23:08:54.553Z,7.80
2018-09-02T23:11:25.810Z,8.20
2018-09-02T23:13:53.404Z,7.80
2018-09-02T23:16:21.482Z,10.00
2018-09-02T23:18:49.084Z,8.80
2018-09-02T23:21:16.694Z,9.00
2018-09-02T23:23:44.823Z,5.80
2018-09-02T23:26:13.237Z,8.40
2018-09-02T23:28:42.094Z,8.80
2018-09-02T23:31:10.619Z,8.20
2018-09-02T23:33:38.206Z,6.00
2018-09-02T23:36:05.764Z,9.00
2018-09-02T23:38:33.326Z,6.40
2018-09-02T23:41:01.274Z,9.20
2018-09-02T23:43:28.875Z,6.80
2018-09-02T23:45:56.468Z,8.40
2018-09-02T23:51:04.766Z,10.80
2018-09-02T23:53:32.448Z,7.20
2018-09-02T23:56:00.107Z,10.80
2018-09-02T23:58:27.738Z,10.60
